Chapman Ranch, Texas
Current Conditions -  °F | °C
As of 6:56 PM on Monday 26 Jan 2015 (Local Time) from KNGP Reporting Station
Broken Clouds Broken Clouds  
Wind Chill: 56°   Ceiling: 24000
Heat Index: 56°   Visibility: 10mi
Dew Point: 47°   Wind: 6mph
Humidity: 72%   Direction: 160°SSE
Pressure: 30.21"   Gusts: NA
Location:  27.59°N, 97.45°W
Report Text: KNGP 270056Z 16005KT 10SM SCT180 BKN240 13/08 A3021 RMK AO2 SLP228 T01330083
Loading
Personal Weather Stations






























Interactive Weather Map New forecast layout! Learn more

10-Day Weather Forecast

Advertisements
Track Severe Weather on mobile